sensor_id;sensor_type;location;lat;lon;timestamp;temperature;humidity
66144;SHT31;52947;50.842;6.084;2023-09-30T00:00:11;15.06;95.47
66144;SHT31;52947;50.842;6.084;2023-09-30T00:02:40;14.99;95.12
66144;SHT31;52947;50.842;6.084;2023-09-30T00:05:09;14.89;96.49
66144;SHT31;52947;50.842;6.084;2023-09-30T00:07:37;14.85;96.88
66144;SHT31;52947;50.842;6.084;2023-09-30T00:10:07;14.79;96.16
66144;SHT31;52947;50.842;6.084;2023-09-30T00:12:37;14.86;97.44
66144;SHT31;52947;50.842;6.084;2023-09-30T00:15:05;14.80;96.85
66144;SHT31;52947;50.842;6.084;2023-09-30T00:17:33;14.85;96.47
66144;SHT31;52947;50.842;6.084;2023-09-30T00:20:02;15.04;97.14
66144;SHT31;52947;50.842;6.084;2023-09-30T00:22:31;15.04;96.05
66144;SHT31;52947;50.842;6.084;2023-09-30T00:24:59;15.02;95.96
66144;SHT31;52947;50.842;6.084;2023-09-30T00:27:29;14.77;96.53
66144;SHT31;52947;50.842;6.084;2023-09-30T00:29:57;14.87;96.71
66144;SHT31;52947;50.842;6.084;2023-09-30T00:32:25;14.95;96.76
66144;SHT31;52947;50.842;6.084;2023-09-30T00:34:53;14.97;94.61
66144;SHT31;52947;50.842;6.084;2023-09-30T00:37:21;15.10;95.90
66144;SHT31;52947;50.842;6.084;2023-09-30T00:39:49;15.11;95.36
66144;SHT31;52947;50.842;6.084;2023-09-30T00:42:17;15.17;94.83
66144;SHT31;52947;50.842;6.084;2023-09-30T00:44:46;15.08;95.28
66144;SHT31;52947;50.842;6.084;2023-09-30T00:47:14;14.97;95.24
66144;SHT31;52947;50.842;6.084;2023-09-30T00:49:43;15.17;95.31
66144;SHT31;52947;50.842;6.084;2023-09-30T00:52:11;15.10;95.30
66144;SHT31;52947;50.842;6.084;2023-09-30T00:54:39;15.17;95.28
66144;SHT31;52947;50.842;6.084;2023-09-30T00:57:08;15.33;94.81
66144;SHT31;52947;50.842;6.084;2023-09-30T00:59:36;15.43;94.42
66144;SHT31;52947;50.842;6.084;2023-09-30T01:02:06;15.46;94.09
66144;SHT31;52947;50.842;6.084;2023-09-30T01:04:35;15.50;94.09
66144;SHT31;52947;50.842;6.084;2023-09-30T01:07:03;15.50;93.99
66144;SHT31;52947;50.842;6.084;2023-09-30T01:09:32;15.71;93.39
66144;SHT31;52947;50.842;6.084;2023-09-30T01:12:00;15.64;93.68
66144;SHT31;52947;50.842;6.084;2023-09-30T01:14:31;15.69;93.27
66144;SHT31;52947;50.842;6.084;2023-09-30T01:17:20;15.72;92.29
66144;SHT31;52947;50.842;6.084;2023-09-30T01:19:49;15.38;92.76
66144;SHT31;52947;50.842;6.084;2023-09-30T01:22:20;15.43;93.73
66144;SHT31;52947;50.842;6.084;2023-09-30T01:24:48;15.48;93.59
66144;SHT31;52947;50.842;6.084;2023-09-30T01:27:16;15.34;93.27
66144;SHT31;52947;50.842;6.084;2023-09-30T01:29:46;15.37;93.44
66144;SHT31;52947;50.842;6.084;2023-09-30T01:32:16;15.46;93.24
66144;SHT31;52947;50.842;6.084;2023-09-30T01:34:44;15.11;92.82
66144;SHT31;52947;50.842;6.084;2023-09-30T01:37:12;15.03;94.26
66144;SHT31;52947;50.842;6.084;2023-09-30T01:39:41;15.06;93.10
66144;SHT31;52947;50.842;6.084;2023-09-30T01:42:12;14.99;94.04
66144;SHT31;52947;50.842;6.084;2023-09-30T01:44:40;14.79;93.83
66144;SHT31;52947;50.842;6.084;2023-09-30T01:47:08;14.71;95.26
66144;SHT31;52947;50.842;6.084;2023-09-30T01:49:36;15.04;94.61
66144;SHT31;52947;50.842;6.084;2023-09-30T01:52:04;15.16;93.92
66144;SHT31;52947;50.842;6.084;2023-09-30T01:54:32;15.02;93.29
66144;SHT31;52947;50.842;6.084;2023-09-30T01:57:02;14.83;94.47
66144;SHT31;52947;50.842;6.084;2023-09-30T01:59:30;14.72;94.92
66144;SHT31;52947;50.842;6.084;2023-09-30T02:01:58;14.79;94.91
66144;SHT31;52947;50.842;6.084;2023-09-30T02:04:26;14.77;94.60
66144;SHT31;52947;50.842;6.084;2023-09-30T02:06:54;14.85;94.56
66144;SHT31;52947;50.842;6.084;2023-09-30T02:09:22;14.68;94.69
66144;SHT31;52947;50.842;6.084;2023-09-30T02:11:51;14.75;94.41
66144;SHT31;52947;50.842;6.084;2023-09-30T02:14:21;14.59;94.01
66144;SHT31;52947;50.842;6.084;2023-09-30T02:16:48;14.65;94.97
66144;SHT31;52947;50.842;6.084;2023-09-30T02:19:16;14.51;94.38
66144;SHT31;52947;50.842;6.084;2023-09-30T02:21:44;14.64;96.01
66144;SHT31;52947;50.842;6.084;2023-09-30T02:24:13;14.73;95.16
66144;SHT31;52947;50.842;6.084;2023-09-30T02:26:42;14.77;93.66
66144;SHT31;52947;50.842;6.084;2023-09-30T02:29:10;14.48;93.71
66144;SHT31;52947;50.842;6.084;2023-09-30T02:31:39;14.38;95.42
66144;SHT31;52947;50.842;6.084;2023-09-30T02:34:08;14.45;94.42
66144;SHT31;52947;50.842;6.084;2023-09-30T02:36:36;14.55;94.76
66144;SHT31;52947;50.842;6.084;2023-09-30T02:39:06;14.72;94.45
66144;SHT31;52947;50.842;6.084;2023-09-30T02:41:35;14.89;93.41
66144;SHT31;52947;50.842;6.084;2023-09-30T02:44:04;14.65;93.63
66144;SHT31;52947;50.842;6.084;2023-09-30T02:46:32;14.66;93.96
66144;SHT31;52947;50.842;6.084;2023-09-30T02:49:02;14.52;94.00
66144;SHT31;52947;50.842;6.084;2023-09-30T02:51:30;14.45;93.82
66144;SHT31;52947;50.842;6.084;2023-09-30T02:53:58;14.29;94.97
66144;SHT31;52947;50.842;6.084;2023-09-30T02:56:27;14.38;94.53
66144;SHT31;52947;50.842;6.084;2023-09-30T02:58:57;14.58;92.97
66144;SHT31;52947;50.842;6.084;2023-09-30T03:01:26;14.38;93.35
66144;SHT31;52947;50.842;6.084;2023-09-30T03:03:55;14.03;93.89
66144;SHT31;52947;50.842;6.084;2023-09-30T03:06:25;13.71;95.05
66144;SHT31;52947;50.842;6.084;2023-09-30T03:08:54;13.80;95.75
66144;SHT31;52947;50.842;6.084;2023-09-30T03:11:22;13.97;95.73
66144;SHT31;52947;50.842;6.084;2023-09-30T03:13:50;14.32;94.44
66144;SHT31;52947;50.842;6.084;2023-09-30T03:16:18;14.24;93.43
66144;SHT31;52947;50.842;6.084;2023-09-30T03:18:47;13.95;93.97
66144;SHT31;52947;50.842;6.084;2023-09-30T03:21:16;13.98;94.83
66144;SHT31;52947;50.842;6.084;2023-09-30T03:23:45;13.52;94.49
66144;SHT31;52947;50.842;6.084;2023-09-30T03:26:13;13.69;95.95
66144;SHT31;52947;50.842;6.084;2023-09-30T03:28:42;13.71;95.44
66144;SHT31;52947;50.842;6.084;2023-09-30T03:31:10;14.00;94.54
66144;SHT31;52947;50.842;6.084;2023-09-30T03:33:38;14.10;94.38
66144;SHT31;52947;50.842;6.084;2023-09-30T03:36:08;14.11;93.82
66144;SHT31;52947;50.842;6.084;2023-09-30T03:38:37;14.01;94.04
66144;SHT31;52947;50.842;6.084;2023-09-30T03:41:07;14.05;94.27
66144;SHT31;52947;50.842;6.084;2023-09-30T03:43:35;14.04;94.09
66144;SHT31;52947;50.842;6.084;2023-09-30T03:46:07;14.15;94.12
66144;SHT31;52947;50.842;6.084;2023-09-30T03:48:36;14.17;94.30
66144;SHT31;52947;50.842;6.084;2023-09-30T03:51:09;14.22;93.68
66144;SHT31;52947;50.842;6.084;2023-09-30T03:53:40;14.20;93.08
66144;SHT31;52947;50.842;6.084;2023-09-30T03:56:11;14.08;94.01
66144;SHT31;52947;50.842;6.084;2023-09-30T03:58:40;13.93;93.78
66144;SHT31;52947;50.842;6.084;2023-09-30T04:01:09;13.74;94.35
66144;SHT31;52947;50.842;6.084;2023-09-30T04:03:40;13.63;94.58
66144;SHT31;52947;50.842;6.084;2023-09-30T04:06:10;13.43;95.22
66144;SHT31;52947;50.842;6.084;2023-09-30T04:08:38;13.49;95.50
66144;SHT31;52947;50.842;6.084;2023-09-30T04:11:07;13.54;95.75
66144;SHT31;52947;50.842;6.084;2023-09-30T04:13:38;13.56;95.99
66144;SHT31;52947;50.842;6.084;2023-09-30T04:16:06;13.59;95.83
66144;SHT31;52947;50.842;6.084;2023-09-30T04:18:34;13.56;96.27
66144;SHT31;52947;50.842;6.084;2023-09-30T04:21:03;13.60;95.48
66144;SHT31;52947;50.842;6.084;2023-09-30T04:23:31;13.81;95.61
66144;SHT31;52947;50.842;6.084;2023-09-30T04:25:59;13.91;94.96
66144;SHT31;52947;50.842;6.084;2023-09-30T04:28:26;13.95;94.51
66144;SHT31;52947;50.842;6.084;2023-09-30T04:30:56;13.86;93.40
66144;SHT31;52947;50.842;6.084;2023-09-30T04:33:25;13.77;94.39
66144;SHT31;52947;50.842;6.084;2023-09-30T04:35:53;13.57;94.89
66144;SHT31;52947;50.842;6.084;2023-09-30T04:38:21;13.39;95.63
66144;SHT31;52947;50.842;6.084;2023-09-30T04:40:49;13.43;96.28
66144;SHT31;52947;50.842;6.084;2023-09-30T04:43:18;13.59;96.64
66144;SHT31;52947;50.842;6.084;2023-09-30T04:45:46;13.73;96.66
66144;SHT31;52947;50.842;6.084;2023-09-30T04:48:17;13.81;95.11
66144;SHT31;52947;50.842;6.084;2023-09-30T04:50:46;13.90;94.70
66144;SHT31;52947;50.842;6.084;2023-09-30T04:53:14;13.80;94.96
66144;SHT31;52947;50.842;6.084;2023-09-30T04:55:42;14.04;94.50
66144;SHT31;52947;50.842;6.084;2023-09-30T04:58:11;14.17;94.18
66144;SHT31;52947;50.842;6.084;2023-09-30T05:00:39;14.18;93.76
66144;SHT31;52947;50.842;6.084;2023-09-30T05:03:06;14.03;93.96
66144;SHT31;52947;50.842;6.084;2023-09-30T05:05:36;14.04;93.82
66144;SHT31;52947;50.842;6.084;2023-09-30T05:08:04;14.03;93.31
66144;SHT31;52947;50.842;6.084;2023-09-30T05:10:33;13.87;93.99
66144;SHT31;52947;50.842;6.084;2023-09-30T05:13:01;13.83;94.11
66144;SHT31;52947;50.842;6.084;2023-09-30T05:15:29;13.69;94.58
66144;SHT31;52947;50.842;6.084;2023-09-30T05:17:59;13.69;93.62
66144;SHT31;52947;50.842;6.084;2023-09-30T05:20:28;13.57;94.73
66144;SHT31;52947;50.842;6.084;2023-09-30T05:22:58;13.54;94.22
66144;SHT31;52947;50.842;6.084;2023-09-30T05:25:26;13.36;94.66
66144;SHT31;52947;50.842;6.084;2023-09-30T05:27:54;13.49;95.13
66144;SHT31;52947;50.842;6.084;2023-09-30T05:30:23;13.54;95.52
66144;SHT31;52947;50.842;6.084;2023-09-30T05:32:52;13.84;94.39
66144;SHT31;52947;50.842;6.084;2023-09-30T05:35:21;14.03;93.43
66144;SHT31;52947;50.842;6.084;2023-09-30T05:37:49;13.87;92.84
66144;SHT31;52947;50.842;6.084;2023-09-30T05:40:21;13.36;93.27
66144;SHT31;52947;50.842;6.084;2023-09-30T05:42:52;12.89;94.34
66144;SHT31;52947;50.842;6.084;2023-09-30T05:45:22;12.85;95.92
66144;SHT31;52947;50.842;6.084;2023-09-30T05:47:51;12.94;95.85
66144;SHT31;52947;50.842;6.084;2023-09-30T05:50:20;12.98;95.94
66144;SHT31;52947;50.842;6.084;2023-09-30T05:53:10;12.94;96.12
66144;SHT31;52947;50.842;6.084;2023-09-30T05:55:40;13.19;96.24
66144;SHT31;52947;50.842;6.084;2023-09-30T05:58:09;13.42;94.94
66144;SHT31;52947;50.842;6.084;2023-09-30T06:00:39;13.60;93.91
66144;SHT31;52947;50.842;6.084;2023-09-30T06:03:09;13.60;93.34
66144;SHT31;52947;50.842;6.084;2023-09-30T06:05:39;13.66;93.40
66144;SHT31;52947;50.842;6.084;2023-09-30T06:08:09;13.74;94.22
66144;SHT31;52947;50.842;6.084;2023-09-30T06:10:42;14.08;93.50
66144;SHT31;52947;50.842;6.084;2023-09-30T06:13:11;14.58;91.38
66144;SHT31;52947;50.842;6.084;2023-09-30T06:15:40;15.00;90.25
66144;SHT31;52947;50.842;6.084;2023-09-30T06:18:08;15.31;89.09
66144;SHT31;52947;50.842;6.084;2023-09-30T06:20:39;15.94;87.91
66144;SHT31;52947;50.842;6.084;2023-09-30T06:23:07;16.61;86.25
66144;SHT31;52947;50.842;6.084;2023-09-30T06:25:37;17.32;84.33
66144;SHT31;52947;50.842;6.084;2023-09-30T06:28:08;18.03;82.44
66144;SHT31;52947;50.842;6.084;2023-09-30T06:30:36;18.64;80.95
66144;SHT31;52947;50.842;6.084;2023-09-30T06:33:04;19.20;77.46
66144;SHT31;52947;50.842;6.084;2023-09-30T06:35:34;19.60;76.61
66144;SHT31;52947;50.842;6.084;2023-09-30T06:38:05;19.73;74.78
66144;SHT31;52947;50.842;6.084;2023-09-30T06:40:34;19.94;75.15
66144;SHT31;52947;50.842;6.084;2023-09-30T06:43:08;20.57;74.29
66144;SHT31;52947;50.842;6.084;2023-09-30T06:45:36;21.00;73.34
66144;SHT31;52947;50.842;6.084;2023-09-30T06:48:09;21.30;70.80
66144;SHT31;52947;50.842;6.084;2023-09-30T06:50:40;21.53;70.38
66144;SHT31;52947;50.842;6.084;2023-09-30T06:53:11;21.86;69.23
66144;SHT31;52947;50.842;6.084;2023-09-30T06:55:40;22.16;68.62
66144;SHT31;52947;50.842;6.084;2023-09-30T06:58:09;22.43;67.94
66144;SHT31;52947;50.842;6.084;2023-09-30T07:00:38;22.57;66.99
66144;SHT31;52947;50.842;6.084;2023-09-30T07:03:06;22.39;68.06
66144;SHT31;52947;50.842;6.084;2023-09-30T07:05:36;22.36;67.62
66144;SHT31;52947;50.842;6.084;2023-09-30T07:08:04;23.08;66.64
66144;SHT31;52947;50.842;6.084;2023-09-30T07:10:32;23.46;65.92
66144;SHT31;52947;50.842;6.084;2023-09-30T07:13:02;23.79;64.32
66144;SHT31;52947;50.842;6.084;2023-09-30T07:15:31;23.96;64.98
66144;SHT31;52947;50.842;6.084;2023-09-30T07:18:00;23.97;63.34
66144;SHT31;52947;50.842;6.084;2023-09-30T07:20:28;24.38;63.68
66144;SHT31;52947;50.842;6.084;2023-09-30T07:22:59;24.85;62.81
66144;SHT31;52947;50.842;6.084;2023-09-30T07:25:44;24.88;61.06
66144;SHT31;52947;50.842;6.084;2023-09-30T07:28:12;25.36;60.94
66144;SHT31;52947;50.842;6.084;2023-09-30T07:30:43;25.77;60.26
66144;SHT31;52947;50.842;6.084;2023-09-30T07:33:11;26.05;59.58
66144;SHT31;52947;50.842;6.084;2023-09-30T07:35:39;26.22;58.72
66144;SHT31;52947;50.842;6.084;2023-09-30T07:38:07;26.49;57.45
66144;SHT31;52947;50.842;6.084;2023-09-30T07:40:35;26.78;57.06
66144;SHT31;52947;50.842;6.084;2023-09-30T07:43:03;26.68;56.53
66144;SHT31;52947;50.842;6.084;2023-09-30T07:45:31;26.53;55.72
66144;SHT31;52947;50.842;6.084;2023-09-30T07:48:01;25.97;57.36
66144;SHT31;52947;50.842;6.084;2023-09-30T07:50:31;25.96;57.85
66144;SHT31;52947;50.842;6.084;2023-09-30T07:53:01;25.79;57.09
66144;SHT31;52947;50.842;6.084;2023-09-30T07:55:29;25.74;57.36
66144;SHT31;52947;50.842;6.084;2023-09-30T07:57:57;26.16;56.25
66144;SHT31;52947;50.842;6.084;2023-09-30T08:00:27;26.38;55.93
66144;SHT31;52947;50.842;6.084;2023-09-30T08:02:56;26.37;54.68
66144;SHT31;52947;50.842;6.084;2023-09-30T08:05:28;26.47;56.01
66144;SHT31;52947;50.842;6.084;2023-09-30T08:07:56;26.48;55.38
66144;SHT31;52947;50.842;6.084;2023-09-30T08:10:25;26.08;55.94
66144;SHT31;52947;50.842;6.084;2023-09-30T08:12:53;26.51;55.18
66144;SHT31;52947;50.842;6.084;2023-09-30T08:15:24;26.21;54.83
66144;SHT31;52947;50.842;6.084;2023-09-30T08:17:52;26.34;56.93
66144;SHT31;52947;50.842;6.084;2023-09-30T08:20:21;26.49;55.43
66144;SHT31;52947;50.842;6.084;2023-09-30T08:22:51;26.55;55.49
66144;SHT31;52947;50.842;6.084;2023-09-30T08:25:19;27.64;54.90
66144;SHT31;52947;50.842;6.084;2023-09-30T08:27:47;28.51;53.21
66144;SHT31;52947;50.842;6.084;2023-09-30T08:30:16;28.87;50.75
66144;SHT31;52947;50.842;6.084;2023-09-30T08:32:45;28.05;51.68
66144;SHT31;52947;50.842;6.084;2023-09-30T08:35:13;28.08;52.06
66144;SHT31;52947;50.842;6.084;2023-09-30T08:37:42;28.33;51.59
66144;SHT31;52947;50.842;6.084;2023-09-30T08:40:12;28.89;52.25
66144;SHT31;52947;50.842;6.084;2023-09-30T08:42:40;28.93;49.90
66144;SHT31;52947;50.842;6.084;2023-09-30T08:45:10;28.96;50.59
66144;SHT31;52947;50.842;6.084;2023-09-30T08:47:41;29.13;49.76
66144;SHT31;52947;50.842;6.084;2023-09-30T08:50:10;29.65;49.90
66144;SHT31;52947;50.842;6.084;2023-09-30T08:52:38;30.33;47.15
66144;SHT31;52947;50.842;6.084;2023-09-30T08:55:08;30.68;47.19
66144;SHT31;52947;50.842;6.084;2023-09-30T08:57:41;30.56;48.21
66144;SHT31;52947;50.842;6.084;2023-09-30T09:00:11;30.90;47.55
66144;SHT31;52947;50.842;6.084;2023-09-30T09:02:41;31.41;45.59
66144;SHT31;52947;50.842;6.084;2023-09-30T09:05:10;31.61;45.63
66144;SHT31;52947;50.842;6.084;2023-09-30T09:07:39;32.04;44.86
66144;SHT31;52947;50.842;6.084;2023-09-30T09:10:08;31.85;45.36
66144;SHT31;52947;50.842;6.084;2023-09-30T09:12:39;32.38;45.29
66144;SHT31;52947;50.842;6.084;2023-09-30T09:15:19;31.79;44.83
66144;SHT31;52947;50.842;6.084;2023-09-30T09:17:47;31.36;45.66
66144;SHT31;52947;50.842;6.084;2023-09-30T09:20:19;32.13;44.75
66144;SHT31;52947;50.842;6.084;2023-09-30T09:22:49;32.64;44.27
66144;SHT31;52947;50.842;6.084;2023-09-30T09:25:19;32.72;43.97
66144;SHT31;52947;50.842;6.084;2023-09-30T09:27:51;32.35;44.30
66144;SHT31;52947;50.842;6.084;2023-09-30T09:30:22;32.55;43.58
66144;SHT31;52947;50.842;6.084;2023-09-30T09:32:55;32.85;43.73
66144;SHT31;52947;50.842;6.084;2023-09-30T09:35:26;32.98;43.32
66144;SHT31;52947;50.842;6.084;2023-09-30T09:37:57;33.33;42.14
66144;SHT31;52947;50.842;6.084;2023-09-30T09:40:27;32.94;42.26
66144;SHT31;52947;50.842;6.084;2023-09-30T09:42:58;31.94;43.46
66144;SHT31;52947;50.842;6.084;2023-09-30T09:45:27;32.27;43.59
66144;SHT31;52947;50.842;6.084;2023-09-30T09:48:00;32.13;42.34
66144;SHT31;52947;50.842;6.084;2023-09-30T09:50:32;31.69;43.25
66144;SHT31;52947;50.842;6.084;2023-09-30T09:53:00;30.65;43.27
66144;SHT31;52947;50.842;6.084;2023-09-30T09:55:29;30.29;44.43
66144;SHT31;52947;50.842;6.084;2023-09-30T09:58:01;29.98;45.34
66144;SHT31;52947;50.842;6.084;2023-09-30T10:00:30;30.98;44.15
66144;SHT31;52947;50.842;6.084;2023-09-30T10:02:59;31.32;43.89
66144;SHT31;52947;50.842;6.084;2023-09-30T10:05:28;31.56;43.10
66144;SHT31;52947;50.842;6.084;2023-09-30T10:08:00;31.56;43.51
66144;SHT31;52947;50.842;6.084;2023-09-30T10:10:30;32.09;43.45
66144;SHT31;52947;50.842;6.084;2023-09-30T10:13:04;31.85;42.91
66144;SHT31;52947;50.842;6.084;2023-09-30T10:15:39;30.85;43.77
66144;SHT31;52947;50.842;6.084;2023-09-30T10:18:11;31.19;44.75
66144;SHT31;52947;50.842;6.084;2023-09-30T10:20:44;31.41;43.62
66144;SHT31;52947;50.842;6.084;2023-09-30T10:23:24;31.11;43.87
66144;SHT31;52947;50.842;6.084;2023-09-30T10:25:54;30.63;44.66
66144;SHT31;52947;50.842;6.084;2023-09-30T10:28:37;28.39;47.56
66144;SHT31;52947;50.842;6.084;2023-09-30T10:31:10;29.32;46.49
66144;SHT31;52947;50.842;6.084;2023-09-30T10:36:44;29.03;47.96
66144;SHT31;52947;50.842;6.084;2023-09-30T10:39:14;28.57;48.16
66144;SHT31;52947;50.842;6.084;2023-09-30T10:41:51;27.16;49.59
66144;SHT31;52947;50.842;6.084;2023-09-30T10:44:36;28.83;48.21
66144;SHT31;52947;50.842;6.084;2023-09-30T10:47:35;28.09;47.60
66144;SHT31;52947;50.842;6.084;2023-09-30T10:53:27;28.86;45.87
66144;SHT31;52947;50.842;6.084;2023-09-30T10:55:57;29.61;45.39
66144;SHT31;52947;50.842;6.084;2023-09-30T10:58:38;29.78;46.20
66144;SHT31;52947;50.842;6.084;2023-09-30T11:01:08;28.41;46.69
66144;SHT31;52947;50.842;6.084;2023-09-30T11:03:37;29.03;46.29
66144;SHT31;52947;50.842;6.084;2023-09-30T11:06:23;28.48;46.68
66144;SHT31;52947;50.842;6.084;2023-09-30T11:08:54;28.52;46.70
66144;SHT31;52947;50.842;6.084;2023-09-30T11:11:40;28.77;46.95
66144;SHT31;52947;50.842;6.084;2023-09-30T11:14:17;27.84;48.30
66144;SHT31;52947;50.842;6.084;2023-09-30T11:16:47;27.64;49.68
66144;SHT31;52947;50.842;6.084;2023-09-30T11:19:15;27.14;48.91
66144;SHT31;52947;50.842;6.084;2023-09-30T11:21:43;27.46;48.86
66144;SHT31;52947;50.842;6.084;2023-09-30T11:24:13;26.59;50.90
66144;SHT31;52947;50.842;6.084;2023-09-30T11:26:42;26.07;52.70
66144;SHT31;52947;50.842;6.084;2023-09-30T11:29:12;27.29;48.71
66144;SHT31;52947;50.842;6.084;2023-09-30T11:31:41;28.25;47.66
66144;SHT31;52947;50.842;6.084;2023-09-30T11:34:11;27.57;49.83
66144;SHT31;52947;50.842;6.084;2023-09-30T11:36:41;28.80;48.78
66144;SHT31;52947;50.842;6.084;2023-09-30T11:39:21;29.23;48.12
66144;SHT31;52947;50.842;6.084;2023-09-30T11:41:50;28.96;47.23
66144;SHT31;52947;50.842;6.084;2023-09-30T11:44:19;28.93;46.76
66144;SHT31;52947;50.842;6.084;2023-09-30T11:46:48;28.49;45.88
66144;SHT31;52947;50.842;6.084;2023-09-30T11:49:31;29.37;46.25
66144;SHT31;52947;50.842;6.084;2023-09-30T11:52:04;28.94;47.44
66144;SHT31;52947;50.842;6.084;2023-09-30T11:54:34;27.85;49.63
66144;SHT31;52947;50.842;6.084;2023-09-30T11:57:04;27.20;51.09
66144;SHT31;52947;50.842;6.084;2023-09-30T11:59:32;26.49;52.47
66144;SHT31;52947;50.842;6.084;2023-09-30T12:02:00;26.67;52.50
66144;SHT31;52947;50.842;6.084;2023-09-30T12:04:43;26.39;52.49
66144;SHT31;52947;50.842;6.084;2023-09-30T12:07:12;26.73;52.09
66144;SHT31;52947;50.842;6.084;2023-09-30T12:09:40;26.83;51.82
66144;SHT31;52947;50.842;6.084;2023-09-30T12:12:10;26.44;51.63
66144;SHT31;52947;50.842;6.084;2023-09-30T12:14:39;26.04;52.07
66144;SHT31;52947;50.842;6.084;2023-09-30T12:17:07;26.24;52.07
66144;SHT31;52947;50.842;6.084;2023-09-30T12:19:41;26.62;51.86
66144;SHT31;52947;50.842;6.084;2023-09-30T12:22:09;26.34;50.65
66144;SHT31;52947;50.842;6.084;2023-09-30T12:24:38;26.31;51.42
66144;SHT31;52947;50.842;6.084;2023-09-30T12:27:07;26.53;51.85
66144;SHT31;52947;50.842;6.084;2023-09-30T12:29:35;26.79;52.01
66144;SHT31;52947;50.842;6.084;2023-09-30T12:32:05;27.04;49.92
66144;SHT31;52947;50.842;6.084;2023-09-30T12:34:34;26.89;51.83
66144;SHT31;52947;50.842;6.084;2023-09-30T12:37:04;26.79;50.26
66144;SHT31;52947;50.842;6.084;2023-09-30T12:39:32;26.35;51.74
66144;SHT31;52947;50.842;6.084;2023-09-30T12:42:01;26.34;54.04
66144;SHT31;52947;50.842;6.084;2023-09-30T12:44:36;26.83;51.70
66144;SHT31;52947;50.842;6.084;2023-09-30T12:47:04;26.80;53.44
66144;SHT31;52947;50.842;6.084;2023-09-30T12:49:33;26.53;53.74
66144;SHT31;52947;50.842;6.084;2023-09-30T12:52:01;26.61;52.04
66144;SHT31;52947;50.842;6.084;2023-09-30T12:54:31;26.38;52.97
66144;SHT31;52947;50.842;6.084;2023-09-30T12:56:59;25.90;55.52
66144;SHT31;52947;50.842;6.084;2023-09-30T12:59:27;25.98;55.01
66144;SHT31;52947;50.842;6.084;2023-09-30T13:01:55;26.07;54.40
66144;SHT31;52947;50.842;6.084;2023-09-30T13:04:23;26.07;54.30
66144;SHT31;52947;50.842;6.084;2023-09-30T13:06:52;25.70;54.15
66144;SHT31;52947;50.842;6.084;2023-09-30T13:09:20;24.77;56.63
66144;SHT31;52947;50.842;6.084;2023-09-30T13:11:50;24.27;57.11
66144;SHT31;52947;50.842;6.084;2023-09-30T13:14:18;24.48;59.09
66144;SHT31;52947;50.842;6.084;2023-09-30T13:16:46;23.93;58.57
66144;SHT31;52947;50.842;6.084;2023-09-30T13:19:15;23.49;58.62
66144;SHT31;52947;50.842;6.084;2023-09-30T13:21:48;23.11;59.90
66144;SHT31;52947;50.842;6.084;2023-09-30T13:24:16;22.81;58.32
66144;SHT31;52947;50.842;6.084;2023-09-30T13:26:45;22.74;60.11
66144;SHT31;52947;50.842;6.084;2023-09-30T13:29:15;22.74;62.62
66144;SHT31;52947;50.842;6.084;2023-09-30T13:31:43;22.83;62.12
66144;SHT31;52947;50.842;6.084;2023-09-30T13:34:11;23.03;62.22
66144;SHT31;52947;50.842;6.084;2023-09-30T13:36:40;23.24;61.34
66144;SHT31;52947;50.842;6.084;2023-09-30T13:39:08;23.25;62.25
66144;SHT31;52947;50.842;6.084;2023-09-30T13:41:39;23.04;60.84
66144;SHT31;52947;50.842;6.084;2023-09-30T13:44:08;22.97;61.47
66144;SHT31;52947;50.842;6.084;2023-09-30T13:46:37;23.07;61.94
66144;SHT31;52947;50.842;6.084;2023-09-30T13:49:05;22.94;61.86
66144;SHT31;52947;50.842;6.084;2023-09-30T13:51:34;22.84;62.70
66144;SHT31;52947;50.842;6.084;2023-09-30T13:54:03;22.68;62.62
66144;SHT31;52947;50.842;6.084;2023-09-30T13:56:31;22.84;62.43
66144;SHT31;52947;50.842;6.084;2023-09-30T13:58:59;23.01;62.12
66144;SHT31;52947;50.842;6.084;2023-09-30T14:01:28;23.22;61.49
66144;SHT31;52947;50.842;6.084;2023-09-30T14:03:59;23.00;59.35
66144;SHT31;52947;50.842;6.084;2023-09-30T14:06:27;22.93;60.52
66144;SHT31;52947;50.842;6.084;2023-09-30T14:08:57;22.96;60.66
66144;SHT31;52947;50.842;6.084;2023-09-30T14:11:27;22.87;59.81
66144;SHT31;52947;50.842;6.084;2023-09-30T14:13:59;22.90;60.70
66144;SHT31;52947;50.842;6.084;2023-09-30T14:16:30;22.80;60.83
66144;SHT31;52947;50.842;6.084;2023-09-30T14:19:00;22.77;62.02
66144;SHT31;52947;50.842;6.084;2023-09-30T14:21:28;22.60;61.73
66144;SHT31;52947;50.842;6.084;2023-09-30T14:24:02;22.59;60.19
66144;SHT31;52947;50.842;6.084;2023-09-30T14:26:30;22.67;61.58
66144;SHT31;52947;50.842;6.084;2023-09-30T14:28:58;22.28;59.51
66144;SHT31;52947;50.842;6.084;2023-09-30T14:31:26;22.05;62.50
66144;SHT31;52947;50.842;6.084;2023-09-30T14:33:54;21.95;62.24
66144;SHT31;52947;50.842;6.084;2023-09-30T14:36:24;21.91;61.76
66144;SHT31;52947;50.842;6.084;2023-09-30T14:38:52;22.02;64.12
66144;SHT31;52947;50.842;6.084;2023-09-30T14:41:39;21.69;62.14
66144;SHT31;52947;50.842;6.084;2023-09-30T14:44:08;21.59;63.97
66144;SHT31;52947;50.842;6.084;2023-09-30T14:46:38;21.89;64.75
66144;SHT31;52947;50.842;6.084;2023-09-30T14:49:07;21.99;64.84
66144;SHT31;52947;50.842;6.084;2023-09-30T14:51:36;21.84;62.94
66144;SHT31;52947;50.842;6.084;2023-09-30T14:54:05;21.71;64.18
66144;SHT31;52947;50.842;6.084;2023-09-30T14:56:33;21.73;64.05
66144;SHT31;52947;50.842;6.084;2023-09-30T14:59:01;21.68;64.03
66144;SHT31;52947;50.842;6.084;2023-09-30T15:01:30;21.71;64.33
66144;SHT31;52947;50.842;6.084;2023-09-30T15:03:58;21.73;65.43
66144;SHT31;52947;50.842;6.084;2023-09-30T15:06:26;21.74;65.96
66144;SHT31;52947;50.842;6.084;2023-09-30T15:08:57;21.85;65.82
66144;SHT31;52947;50.842;6.084;2023-09-30T15:11:25;21.65;64.11
66144;SHT31;52947;50.842;6.084;2023-09-30T15:13:53;21.48;64.73
66144;SHT31;52947;50.842;6.084;2023-09-30T15:16:23;21.45;65.18
66144;SHT31;52947;50.842;6.084;2023-09-30T15:18:53;21.28;64.84
66144;SHT31;52947;50.842;6.084;2023-09-30T15:21:21;21.23;66.42
66144;SHT31;52947;50.842;6.084;2023-09-30T15:23:50;21.26;65.31
66144;SHT31;52947;50.842;6.084;2023-09-30T15:26:20;21.24;65.26
66144;SHT31;52947;50.842;6.084;2023-09-30T15:28:48;21.37;66.06
66144;SHT31;52947;50.842;6.084;2023-09-30T15:31:16;21.28;65.50
66144;SHT31;52947;50.842;6.084;2023-09-30T15:33:45;21.47;66.81
66144;SHT31;52947;50.842;6.084;2023-09-30T15:36:14;21.44;65.77
66144;SHT31;52947;50.842;6.084;2023-09-30T15:38:44;21.44;65.89
66144;SHT31;52947;50.842;6.084;2023-09-30T15:41:14;21.26;66.56
66144;SHT31;52947;50.842;6.084;2023-09-30T15:43:44;21.20;66.79
66144;SHT31;52947;50.842;6.084;2023-09-30T15:46:12;21.04;66.91
66144;SHT31;52947;50.842;6.084;2023-09-30T15:48:41;20.87;67.07
66144;SHT31;52947;50.842;6.084;2023-09-30T15:51:10;20.82;67.04